sensor_id;sensor_type;location;lat;lon;timestamp;pressure;altitude;pressure_sealevel;temperature;humidity
17615;BME280;8926;49.720;6.576;2023-03-05T00:01:23;100216.31;;;6.36;70.31
17615;BME280;8926;49.720;6.576;2023-03-05T00:03:50;100221.53;;;6.35;70.13
17615;BME280;8926;49.720;6.576;2023-03-05T00:06:17;100213.81;;;6.33;70.24
17615;BME280;8926;49.720;6.576;2023-03-05T00:08:42;100210.31;;;6.34;70.57
17615;BME280;8926;49.720;6.576;2023-03-05T00:11:09;100212.94;;;6.33;70.43
17615;BME280;8926;49.720;6.576;2023-03-05T00:13:36;100206.06;;;6.32;70.73
17615;BME280;8926;49.720;6.576;2023-03-05T00:16:03;100209.56;;;6.31;71.58
17615;BME280;8926;49.720;6.576;2023-03-05T00:18:29;100204.31;;;6.32;71.21
17615;BME280;8926;49.720;6.576;2023-03-05T00:20:54;100204.28;;;6.34;70.96
17615;BME280;8926;49.720;6.576;2023-03-05T00:23:19;100200.78;;;6.35;71.36
17615;BME280;8926;49.720;6.576;2023-03-05T00:25:45;100193.88;;;6.34;71.32
17615;BME280;8926;49.720;6.576;2023-03-05T00:28:11;100207.84;;;6.30;71.62
17615;BME280;8926;49.720;6.576;2023-03-05T00:30:36;100208.03;;;6.24;71.55
17615;BME280;8926;49.720;6.576;2023-03-05T00:33:01;100210.06;;;6.16;71.81
17615;BME280;8926;49.720;6.576;2023-03-05T00:35:27;100210.13;;;6.12;72.23
17615;BME280;8926;49.720;6.576;2023-03-05T00:37:52;100212.03;;;6.07;72.36
17615;BME280;8926;49.720;6.576;2023-03-05T00:40:18;100207.00;;;6.01;72.63
17615;BME280;8926;49.720;6.576;2023-03-05T00:42:43;100206.16;;;6.01;72.32
17615;BME280;8926;49.720;6.576;2023-03-05T00:45:09;100212.28;;;5.98;72.80
17615;BME280;8926;49.720;6.576;2023-03-05T00:47:35;100207.09;;;5.98;72.32
17615;BME280;8926;49.720;6.576;2023-03-05T00:50:01;100205.44;;;5.97;73.18
17615;BME280;8926;49.720;6.576;2023-03-05T00:52:26;100211.44;;;5.98;73.12
17615;BME280;8926;49.720;6.576;2023-03-05T00:54:51;100208.06;;;5.96;73.21
17615;BME280;8926;49.720;6.576;2023-03-05T00:57:17;100206.22;;;5.99;72.85
17615;BME280;8926;49.720;6.576;2023-03-05T00:59:42;100198.56;;;5.96;72.81
17615;BME280;8926;49.720;6.576;2023-03-05T01:02:07;100195.16;;;5.94;72.99
17615;BME280;8926;49.720;6.576;2023-03-05T01:04:33;100198.56;;;5.96;73.08
17615;BME280;8926;49.720;6.576;2023-03-05T01:06:58;100200.19;;;5.99;72.98
17615;BME280;8926;49.720;6.576;2023-03-05T01:09:24;100197.53;;;6.00;73.20
17615;BME280;8926;49.720;6.576;2023-03-05T01:11:50;100189.66;;;6.03;72.83
17615;BME280;8926;49.720;6.576;2023-03-05T01:14:16;100184.38;;;6.06;72.14
17615;BME280;8926;49.720;6.576;2023-03-05T01:16:41;100176.59;;;6.06;72.25
17615;BME280;8926;49.720;6.576;2023-03-05T01:19:07;100177.50;;;6.05;72.30
17615;BME280;8926;49.720;6.576;2023-03-05T01:21:34;100179.19;;;6.06;72.18
17615;BME280;8926;49.720;6.576;2023-03-05T01:24:00;100187.88;;;6.05;72.28
17615;BME280;8926;49.720;6.576;2023-03-05T01:26:25;100173.22;;;6.04;72.47
17615;BME280;8926;49.720;6.576;2023-03-05T01:28:51;100170.72;;;6.01;71.69
17615;BME280;8926;49.720;6.576;2023-03-05T01:31:16;100163.81;;;6.00;71.72
17615;BME280;8926;49.720;6.576;2023-03-05T01:33:42;100163.81;;;6.00;72.36
17615;BME280;8926;49.720;6.576;2023-03-05T01:36:09;100160.44;;;5.98;71.94
17615;BME280;8926;49.720;6.576;2023-03-05T01:38:37;100150.84;;;6.00;72.48
17615;BME280;8926;49.720;6.576;2023-03-05T01:41:02;100156.94;;;5.99;71.95
17615;BME280;8926;49.720;6.576;2023-03-05T01:43:29;100155.47;;;5.92;72.25
17615;BME280;8926;49.720;6.576;2023-03-05T01:51:45;100136.19;;;5.99;70.85
17615;BME280;8926;49.720;6.576;2023-03-05T01:54:14;100138.13;;;5.94;70.76
17615;BME280;8926;49.720;6.576;2023-03-05T01:56:42;100131.22;;;5.93;69.95
17615;BME280;8926;49.720;6.576;2023-03-05T01:59:09;100129.53;;;5.92;69.96
17615;BME280;8926;49.720;6.576;2023-03-05T02:01:40;100125.28;;;5.90;70.01
17615;BME280;8926;49.720;6.576;2023-03-05T02:04:08;100122.69;;;5.90;70.99
17615;BME280;8926;49.720;6.576;2023-03-05T02:06:34;100128.63;;;5.93;70.14
17615;BME280;8926;49.720;6.576;2023-03-05T02:08:59;100122.56;;;5.94;70.10
17615;BME280;8926;49.720;6.576;2023-03-05T02:11:25;100120.75;;;5.96;69.36
17615;BME280;8926;49.720;6.576;2023-03-05T02:13:50;100108.69;;;5.95;69.80
17615;BME280;8926;49.720;6.576;2023-03-05T02:16:16;100119.78;;;5.99;69.98
17615;BME280;8926;49.720;6.576;2023-03-05T02:18:41;100122.34;;;6.00;69.70
17615;BME280;8926;49.720;6.576;2023-03-05T02:21:08;100117.16;;;6.00;69.47
17615;BME280;8926;49.720;6.576;2023-03-05T02:23:36;100112.84;;;5.99;69.31
17615;BME280;8926;49.720;6.576;2023-03-05T02:26:03;100110.25;;;5.99;69.44
17615;BME280;8926;49.720;6.576;2023-03-05T02:28:33;100110.41;;;5.96;70.30
17615;BME280;8926;49.720;6.576;2023-03-05T02:30:59;100108.69;;;5.95;70.25
17615;BME280;8926;49.720;6.576;2023-03-05T02:33:25;100117.47;;;5.91;70.46
17615;BME280;8926;49.720;6.576;2023-03-05T02:35:50;100106.28;;;5.89;69.58
17615;BME280;8926;49.720;6.576;2023-03-05T02:38:17;100112.34;;;5.88;69.85
17615;BME280;8926;49.720;6.576;2023-03-05T02:40:43;100103.69;;;5.89;69.30
17615;BME280;8926;49.720;6.576;2023-03-05T02:43:09;100106.25;;;5.91;68.06
17615;BME280;8926;49.720;6.576;2023-03-05T02:45:35;100107.84;;;5.95;68.60
17615;BME280;8926;49.720;6.576;2023-03-05T02:48:01;100101.91;;;5.91;69.53
17615;BME280;8926;49.720;6.576;2023-03-05T02:50:27;100098.50;;;5.89;69.27
17615;BME280;8926;49.720;6.576;2023-03-05T02:52:52;100094.25;;;5.87;69.25
17615;BME280;8926;49.720;6.576;2023-03-05T02:55:18;100092.47;;;5.89;68.85
17615;BME280;8926;49.720;6.576;2023-03-05T02:57:43;100086.41;;;5.88;68.21
17615;BME280;8926;49.720;6.576;2023-03-05T03:00:09;100087.25;;;5.90;68.00
17615;BME280;8926;49.720;6.576;2023-03-05T03:02:35;100072.59;;;5.89;67.87
17615;BME280;8926;49.720;6.576;2023-03-05T03:05:00;100079.41;;;5.92;67.57
17615;BME280;8926;49.720;6.576;2023-03-05T03:07:26;100076.88;;;5.90;67.41
17615;BME280;8926;49.720;6.576;2023-03-05T03:09:51;100071.69;;;5.90;67.29
17615;BME280;8926;49.720;6.576;2023-03-05T03:12:17;100076.81;;;5.92;67.44
17615;BME280;8926;49.720;6.576;2023-03-05T03:14:42;100071.66;;;5.92;67.49
17615;BME280;8926;49.720;6.576;2023-03-05T03:17:11;100067.34;;;5.91;66.38
17615;BME280;8926;49.720;6.576;2023-03-05T03:19:37;100067.41;;;5.89;66.72
17615;BME280;8926;49.720;6.576;2023-03-05T03:22:04;100063.97;;;5.87;67.98
17615;BME280;8926;49.720;6.576;2023-03-05T03:24:30;100059.63;;;5.89;67.72
17615;BME280;8926;49.720;6.576;2023-03-05T03:26:56;100061.38;;;5.87;66.98
17615;BME280;8926;49.720;6.576;2023-03-05T03:29:21;100059.69;;;5.86;67.54
17615;BME280;8926;49.720;6.576;2023-03-05T03:31:47;100063.97;;;5.87;67.42
17615;BME280;8926;49.720;6.576;2023-03-05T03:34:13;100063.19;;;5.85;67.36
17615;BME280;8926;49.720;6.576;2023-03-05T03:36:40;100066.56;;;5.89;67.04
17615;BME280;8926;49.720;6.576;2023-03-05T03:39:05;100056.03;;;5.93;66.62
17615;BME280;8926;49.720;6.576;2023-03-05T03:41:31;100056.84;;;5.95;66.64
17615;BME280;8926;49.720;6.576;2023-03-05T03:43:57;100069.00;;;5.93;66.36
17615;BME280;8926;49.720;6.576;2023-03-05T03:46:22;100055.31;;;5.88;65.64
17615;BME280;8926;49.720;6.576;2023-03-05T03:48:51;100055.31;;;5.88;65.93
17615;BME280;8926;49.720;6.576;2023-03-05T03:51:16;100044.94;;;5.88;65.66
17615;BME280;8926;49.720;6.576;2023-03-05T03:53:41;100045.81;;;5.87;65.82
17615;BME280;8926;49.720;6.576;2023-03-05T03:56:07;100053.69;;;5.84;65.94
17615;BME280;8926;49.720;6.576;2023-03-05T03:58:32;100047.72;;;5.82;66.19
17615;BME280;8926;49.720;6.576;2023-03-05T04:00:57;100048.63;;;5.81;66.33
17615;BME280;8926;49.720;6.576;2023-03-05T04:03:23;100047.09;;;5.74;67.47
17615;BME280;8926;49.720;6.576;2023-03-05T04:05:48;100049.81;;;5.71;67.84
17615;BME280;8926;49.720;6.576;2023-03-05T04:08:13;100039.50;;;5.69;67.30
17615;BME280;8926;49.720;6.576;2023-03-05T04:10:39;100035.03;;;5.73;67.51
17615;BME280;8926;49.720;6.576;2023-03-05T04:13:05;100033.97;;;5.80;66.87
17615;BME280;8926;49.720;6.576;2023-03-05T04:15:31;100033.84;;;5.83;65.87
17615;BME280;8926;49.720;6.576;2023-03-05T04:17:57;100029.47;;;5.85;66.16
17615;BME280;8926;49.720;6.576;2023-03-05T04:20:22;100025.91;;;5.89;66.11
17615;BME280;8926;49.720;6.576;2023-03-05T04:22:47;100027.69;;;5.87;66.19
17615;BME280;8926;49.720;6.576;2023-03-05T04:25:13;100035.44;;;5.89;65.68
17615;BME280;8926;49.720;6.576;2023-03-05T04:27:38;100024.19;;;5.88;65.15
17615;BME280;8926;49.720;6.576;2023-03-05T04:30:09;100027.63;;;5.90;65.28
17615;BME280;8926;49.720;6.576;2023-03-05T04:32:35;100021.75;;;5.84;65.81
17615;BME280;8926;49.720;6.576;2023-03-05T04:35:01;100023.63;;;5.78;66.81
17615;BME280;8926;49.720;6.576;2023-03-05T04:37:26;100021.19;;;5.74;66.57
17615;BME280;8926;49.720;6.576;2023-03-05T04:39:52;100019.41;;;5.76;65.58
17615;BME280;8926;49.720;6.576;2023-03-05T04:42:18;100016.66;;;5.80;65.53
17615;BME280;8926;49.720;6.576;2023-03-05T04:44:45;100014.81;;;5.84;65.78
17615;BME280;8926;49.720;6.576;2023-03-05T04:47:10;100018.22;;;5.86;65.08
17615;BME280;8926;49.720;6.576;2023-03-05T04:49:35;100010.44;;;5.86;65.31
17615;BME280;8926;49.720;6.576;2023-03-05T04:52:00;100017.50;;;5.81;65.38
17615;BME280;8926;49.720;6.576;2023-03-05T04:54:26;100005.34;;;5.83;65.31
17615;BME280;8926;49.720;6.576;2023-03-05T04:56:52;100008.94;;;5.79;65.72
17615;BME280;8926;49.720;6.576;2023-03-05T04:59:17;100015.81;;;5.80;64.57
17615;BME280;8926;49.720;6.576;2023-03-05T05:01:42;100003.84;;;5.76;65.41
17615;BME280;8926;49.720;6.576;2023-03-05T05:04:08;100002.16;;;5.75;65.02
17615;BME280;8926;49.720;6.576;2023-03-05T05:06:33;100000.34;;;5.77;65.76
17615;BME280;8926;49.720;6.576;2023-03-05T05:08:59;99998.56;;;5.79;65.56
17615;BME280;8926;49.720;6.576;2023-03-05T05:11:24;99992.63;;;5.75;65.54
17615;BME280;8926;49.720;6.576;2023-03-05T05:13:50;99989.88;;;5.80;66.15
17615;BME280;8926;49.720;6.576;2023-03-05T05:16:15;99994.22;;;5.79;65.69
17615;BME280;8926;49.720;6.576;2023-03-05T05:18:41;99998.56;;;5.79;66.24
17615;BME280;8926;49.720;6.576;2023-03-05T05:21:11;99991.69;;;5.78;65.92
17615;BME280;8926;49.720;6.576;2023-03-05T05:23:37;99993.47;;;5.76;65.49
17615;BME280;8926;49.720;6.576;2023-03-05T05:26:04;99986.59;;;5.75;65.97
17615;BME280;8926;49.720;6.576;2023-03-05T05:28:30;99987.44;;;5.75;65.48
17615;BME280;8926;49.720;6.576;2023-03-05T05:30:56;99981.31;;;5.78;65.84
17615;BME280;8926;49.720;6.576;2023-03-05T05:33:22;99979.63;;;5.77;65.10
17615;BME280;8926;49.720;6.576;2023-03-05T05:35:47;99976.31;;;5.72;65.69
17615;BME280;8926;49.720;6.576;2023-03-05T05:38:13;99984.06;;;5.73;65.57
17615;BME280;8926;49.720;6.576;2023-03-05T05:40:38;99983.34;;;5.70;65.93
17615;BME280;8926;49.720;6.576;2023-03-05T05:43:04;99975.38;;;5.74;65.41
17615;BME280;8926;49.720;6.576;2023-03-05T05:45:30;99974.53;;;5.74;65.69
17615;BME280;8926;49.720;6.576;2023-03-05T05:47:56;99971.94;;;5.74;65.48
17615;BME280;8926;49.720;6.576;2023-03-05T05:50:21;99971.13;;;5.72;65.65
17615;BME280;8926;49.720;6.576;2023-03-05T05:52:46;99974.72;;;5.69;65.55
17615;BME280;8926;49.720;6.576;2023-03-05T05:55:12;99969.47;;;5.71;65.46
17615;BME280;8926;49.720;6.576;2023-03-05T05:57:38;99974.66;;;5.71;65.30
17615;BME280;8926;49.720;6.576;2023-03-05T06:00:06;99976.47;;;5.69;66.30
17615;BME280;8926;49.720;6.576;2023-03-05T06:02:32;99978.16;;;5.70;65.51
17615;BME280;8926;49.720;6.576;2023-03-05T06:04:57;99973.81;;;5.70;66.24
17615;BME280;8926;49.720;6.576;2023-03-05T06:07:22;99969.47;;;5.71;65.22
17615;BME280;8926;49.720;6.576;2023-03-05T06:09:48;99973.72;;;5.72;65.63
17615;BME280;8926;49.720;6.576;2023-03-05T06:12:13;99978.91;;;5.72;64.80
17615;BME280;8926;49.720;6.576;2023-03-05T06:14:38;99972.97;;;5.70;65.15
17615;BME280;8926;49.720;6.576;2023-03-05T06:17:03;99974.59;;;5.72;65.54
17615;BME280;8926;49.720;6.576;2023-03-05T06:19:29;99972.06;;;5.71;65.26
17615;BME280;8926;49.720;6.576;2023-03-05T06:21:54;99972.25;;;5.65;65.91
17615;BME280;8926;49.720;6.576;2023-03-05T06:24:20;99970.72;;;5.59;64.80
17615;BME280;8926;49.720;6.576;2023-03-05T06:26:46;99969.88;;;5.59;65.67
17615;BME280;8926;49.720;6.576;2023-03-05T06:29:12;99968.06;;;5.61;66.32
17615;BME280;8926;49.720;6.576;2023-03-05T06:31:38;99971.47;;;5.63;65.54
17615;BME280;8926;49.720;6.576;2023-03-05T06:34:03;99968.81;;;5.64;66.46
17615;BME280;8926;49.720;6.576;2023-03-05T06:36:29;99967.03;;;5.66;66.15
17615;BME280;8926;49.720;6.576;2023-03-05T06:38:55;99962.59;;;5.70;66.42
17615;BME280;8926;49.720;6.576;2023-03-05T06:41:26;99965.16;;;5.71;66.50
17615;BME280;8926;49.720;6.576;2023-03-05T06:43:52;99960.91;;;5.69;65.35
17615;BME280;8926;49.720;6.576;2023-03-05T06:46:23;99961.63;;;5.72;65.83
17615;BME280;8926;49.720;6.576;2023-03-05T06:48:49;99953.94;;;5.71;66.33
17615;BME280;8926;49.720;6.576;2023-03-05T06:51:20;99953.94;;;5.71;65.28
17615;BME280;8926;49.720;6.576;2023-03-05T06:53:47;99962.47;;;5.73;65.67
17615;BME280;8926;49.720;6.576;2023-03-05T06:56:13;99960.78;;;5.72;65.15
17615;BME280;8926;49.720;6.576;2023-03-05T06:58:41;99962.47;;;5.73;65.38
17615;BME280;8926;49.720;6.576;2023-03-05T07:01:07;99964.16;;;5.74;65.89
17615;BME280;8926;49.720;6.576;2023-03-05T07:03:33;99958.13;;;5.73;65.57
17615;BME280;8926;49.720;6.576;2023-03-05T07:06:04;99962.47;;;5.73;65.27
17615;BME280;8926;49.720;6.576;2023-03-05T07:08:30;99955.59;;;5.72;65.34
17615;BME280;8926;49.720;6.576;2023-03-05T07:10:56;99954.78;;;5.71;65.72
17615;BME280;8926;49.720;6.576;2023-03-05T07:13:21;99954.88;;;5.68;66.09
17615;BME280;8926;49.720;6.576;2023-03-05T07:15:46;99953.84;;;5.72;65.44
17615;BME280;8926;49.720;6.576;2023-03-05T07:18:12;99949.63;;;5.70;65.30
17615;BME280;8926;49.720;6.576;2023-03-05T07:20:37;99947.91;;;5.70;65.93
17615;BME280;8926;49.720;6.576;2023-03-05T07:23:03;99939.31;;;5.68;65.78
17615;BME280;8926;49.720;6.576;2023-03-05T07:25:28;99946.19;;;5.69;65.87
17615;BME280;8926;49.720;6.576;2023-03-05T07:27:54;99950.41;;;5.72;65.57
17615;BME280;8926;49.720;6.576;2023-03-05T07:30:19;99947.06;;;5.70;66.89
17615;BME280;8926;49.720;6.576;2023-03-05T07:32:45;99948.84;;;5.68;66.35
17615;BME280;8926;49.720;6.576;2023-03-05T07:35:10;99944.56;;;5.67;67.12
17615;BME280;8926;49.720;6.576;2023-03-05T07:37:35;99951.38;;;5.69;66.69
17615;BME280;8926;49.720;6.576;2023-03-05T07:40:01;99950.31;;;5.75;67.10
17615;BME280;8926;49.720;6.576;2023-03-05T07:42:26;99950.31;;;5.75;66.91
17615;BME280;8926;49.720;6.576;2023-03-05T07:44:51;99945.03;;;5.78;66.78
17615;BME280;8926;49.720;6.576;2023-03-05T07:47:17;99950.09;;;5.81;66.76
17615;BME280;8926;49.720;6.576;2023-03-05T07:49:42;99952.53;;;5.86;66.16
17615;BME280;8926;49.720;6.576;2023-03-05T07:52:08;99953.31;;;5.89;65.72
17615;BME280;8926;49.720;6.576;2023-03-05T07:54:34;99947.19;;;5.92;65.79
17615;BME280;8926;49.720;6.576;2023-03-05T07:57:03;99948.03;;;5.92;66.16
17615;BME280;8926;49.720;6.576;2023-03-05T07:59:29;99939.38;;;5.93;65.96
17615;BME280;8926;49.720;6.576;2023-03-05T08:01:54;99940.09;;;5.97;65.74
17615;BME280;8926;49.720;6.576;2023-03-05T08:04:20;99947.69;;;6.01;65.36
17615;BME280;8926;49.720;6.576;2023-03-05T08:06:45;99940.81;;;6.00;66.06
17615;BME280;8926;49.720;6.576;2023-03-05T08:09:11;99944.22;;;6.02;66.18
17615;BME280;8926;49.720;6.576;2023-03-05T08:11:38;99942.41;;;6.04;65.58
17615;BME280;8926;49.720;6.576;2023-03-05T08:14:04;99938.06;;;6.05;65.95
17615;BME280;8926;49.720;6.576;2023-03-05T08:16:29;99940.50;;;6.09;66.11
17615;BME280;8926;49.720;6.576;2023-03-05T08:18:56;99932.47;;;6.17;66.77
17615;BME280;8926;49.720;6.576;2023-03-05T08:21:25;99933.31;;;6.18;66.50
17615;BME280;8926;49.720;6.576;2023-03-05T08:23:55;99928.97;;;6.18;66.09
17615;BME280;8926;49.720;6.576;2023-03-05T08:26:22;99926.31;;;6.20;66.46
17615;BME280;8926;49.720;6.576;2023-03-05T08:28:48;99926.31;;;6.20;65.84
17615;BME280;8926;49.720;6.576;2023-03-05T08:31:16;99928.97;;;6.18;65.88
17615;BME280;8926;49.720;6.576;2023-03-05T08:33:41;99929.88;;;6.17;65.52
17615;BME280;8926;49.720;6.576;2023-03-05T08:36:07;99930.88;;;6.13;66.10
17615;BME280;8926;49.720;6.576;2023-03-05T08:38:33;99926.63;;;6.10;66.75
17615;BME280;8926;49.720;6.576;2023-03-05T08:40:59;99932.56;;;6.14;66.70
17615;BME280;8926;49.720;6.576;2023-03-05T08:43:25;99923.94;;;6.13;66.84
17615;BME280;8926;49.720;6.576;2023-03-05T08:45:50;99933.31;;;6.18;67.17
17615;BME280;8926;49.720;6.576;2023-03-05T08:48:17;99928.97;;;6.18;67.07
17615;BME280;8926;49.720;6.576;2023-03-05T08:50:43;99930.47;;;6.24;66.94
17615;BME280;8926;49.720;6.576;2023-03-05T08:53:08;99931.25;;;6.26;66.64
17615;BME280;8926;49.720;6.576;2023-03-05T08:55:33;99926.91;;;6.26;66.44
17615;BME280;8926;49.720;6.576;2023-03-05T08:57:59;99928.66;;;6.26;66.52
17615;BME280;8926;49.720;6.576;2023-03-05T09:00:24;99916.50;;;6.28;66.91
17615;BME280;8926;49.720;6.576;2023-03-05T09:02:50;99923.44;;;6.27;66.62
17615;BME280;8926;49.720;6.576;2023-03-05T09:05:15;99918.06;;;6.32;66.73
17615;BME280;8926;49.720;6.576;2023-03-05T09:07:41;99918.75;;;6.37;67.21
17615;BME280;8926;49.720;6.576;2023-03-05T09:10:07;99918.53;;;6.43;66.36
17615;BME280;8926;49.720;6.576;2023-03-05T09:12:35;99910.75;;;6.43;65.99
17615;BME280;8926;49.720;6.576;2023-03-05T09:15:02;99913.34;;;6.43;66.09
17615;BME280;8926;49.720;6.576;2023-03-05T09:17:28;99903.59;;;6.50;66.29
17615;BME280;8926;49.720;6.576;2023-03-05T09:19:53;99909.50;;;6.53;65.53
17615;BME280;8926;49.720;6.576;2023-03-05T09:22:18;99910.22;;;6.57;65.38
17615;BME280;8926;49.720;6.576;2023-03-05T09:24:44;99900.81;;;6.54;65.73
17615;BME280;8926;49.720;6.576;2023-03-05T09:27:09;99901.59;;;6.56;65.35
17615;BME280;8926;49.720;6.576;2023-03-05T09:29:34;99897.19;;;6.58;64.93
17615;BME280;8926;49.720;6.576;2023-03-05T09:32:00;99897.19;;;6.58;65.36
17615;BME280;8926;49.720;6.576;2023-03-05T09:34:25;99895.50;;;6.57;65.40
17615;BME280;8926;49.720;6.576;2023-03-05T09:36:51;99892.69;;;6.63;64.95
17615;BME280;8926;49.720;6.576;2023-03-05T09:39:16;99877.78;;;6.68;65.21
17615;BME280;8926;49.720;6.576;2023-03-05T09:44:36;99875.59;;;6.79;64.70
17615;BME280;8926;49.720;6.576;2023-03-05T09:49:58;99870.00;;;6.90;63.75
17615;BME280;8926;49.720;6.576;2023-03-05T09:52:35;99871.38;;;6.99;63.73
17615;BME280;8926;49.720;6.576;2023-03-05T09:55:03;99864.38;;;7.01;63.37
17615;BME280;8926;49.720;6.576;2023-03-05T09:57:38;99865.91;;;7.05;62.79
17615;BME280;8926;49.720;6.576;2023-03-05T10:00:15;99871.00;;;7.08;62.75
17615;BME280;8926;49.720;6.576;2023-03-05T10:02:51;99865.69;;;7.11;62.33
17615;BME280;8926;49.720;6.576;2023-03-05T10:08:23;99862.28;;;7.09;61.91
17615;BME280;8926;49.720;6.576;2023-03-05T10:10:53;99862.97;;;7.14;62.03
17615;BME280;8926;49.720;6.576;2023-03-05T10:13:23;99862.28;;;7.09;61.68
17615;BME280;8926;49.720;6.576;2023-03-05T10:19:09;99862.28;;;7.09;61.35
17615;BME280;8926;49.720;6.576;2023-03-05T10:21:52;99858.00;;;7.08;61.66
17615;BME280;8926;49.720;6.576;2023-03-05T10:27:07;99854.25;;;7.15;61.31
17615;BME280;8926;49.720;6.576;2023-03-05T10:29:55;99852.50;;;7.15;61.08
17615;BME280;8926;49.720;6.576;2023-03-05T10:32:34;99849.72;;;7.20;61.08
17615;BME280;8926;49.720;6.576;2023-03-05T10:37:55;99838.44;;;7.21;59.47
17615;BME280;8926;49.720;6.576;2023-03-05T10:40:25;99844.53;;;7.20;59.87
17615;BME280;8926;49.720;6.576;2023-03-05T10:45:52;99841.50;;;7.09;59.70
17615;BME280;8926;49.720;6.576;2023-03-05T10:51:12;99830.88;;;7.15;59.17
17615;BME280;8926;49.720;6.576;2023-03-05T10:54:01;99834.31;;;7.15;58.80
17615;BME280;8926;49.720;6.576;2023-03-05T10:56:28;99829.97;;;7.16;57.86
17615;BME280;8926;49.720;6.576;2023-03-05T10:58:56;99822.31;;;7.13;57.40
17615;BME280;8926;49.720;6.576;2023-03-05T11:01:27;99829.44;;;7.08;55.88
17615;BME280;8926;49.720;6.576;2023-03-05T11:03:58;99825.81;;;7.12;57.10
17615;BME280;8926;49.720;6.576;2023-03-05T11:09:24;99817.22;;;7.10;55.66
17615;BME280;8926;49.720;6.576;2023-03-05T11:12:13;99810.81;;;7.19;57.08
17615;BME280;8926;49.720;6.576;2023-03-05T11:14:44;99804.78;;;7.18;56.46
17615;BME280;8926;49.720;6.576;2023-03-05T11:17:29;99808.94;;;7.22;55.71
17615;BME280;8926;49.720;6.576;2023-03-05T11:19:55;99806.47;;;7.19;55.48
17615;BME280;8926;49.720;6.576;2023-03-05T11:22:23;99801.41;;;7.16;54.92
17615;BME280;8926;49.720;6.576;2023-03-05T11:27:36;99804.78;;;7.18;55.67
17615;BME280;8926;49.720;6.576;2023-03-05T11:30:13;99809.19;;;7.16;55.24
17615;BME280;8926;49.720;6.576;2023-03-05T11:32:42;99799.59;;;7.18;54.99
17615;BME280;8926;49.720;6.576;2023-03-05T11:35:30;99802.84;;;7.23;54.89
17615;BME280;8926;49.720;6.576;2023-03-05T11:38:04;99807.00;;;7.27;54.94
17615;BME280;8926;49.720;6.576;2023-03-05T11:40:31;99801.81;;;7.27;54.19
17615;BME280;8926;49.720;6.576;2023-03-05T11:43:00;99796.59;;;7.27;55.03
17615;BME280;8926;49.720;6.576;2023-03-05T11:45:28;99795.66;;;7.28;55.01
17615;BME280;8926;49.720;6.576;2023-03-05T11:47:57;99785.22;;;7.30;53.96
17615;BME280;8926;49.720;6.576;2023-03-05T11:50:29;99783.75;;;7.24;54.07
17615;BME280;8926;49.720;6.576;2023-03-05T11:53:20;99779.94;;;7.31;54.58
17615;BME280;8926;49.720;6.576;2023-03-05T11:58:35;99772.16;;;7.52;53.38
17615;BME280;8926;49.720;6.576;2023-03-05T12:01:13;99758.41;;;7.68;53.75
17615;BME280;8926;49.720;6.576;2023-03-05T12:03:40;99753.22;;;7.87;52.71
17615;BME280;8926;49.720;6.576;2023-03-05T12:06:09;99741.97;;;8.05;52.10
17615;BME280;8926;49.720;6.576;2023-03-05T12:08:41;99740.97;;;8.27;52.02
17615;BME280;8926;49.720;6.576;2023-03-05T12:11:28;99731.88;;;8.35;52.01
17615;BME280;8926;49.720;6.576;2023-03-05T12:14:03;99730.91;;;8.38;51.05
17615;BME280;8926;49.720;6.576;2023-03-05T12:16:37;99725.84;;;8.35;51.34
17615;BME280;8926;49.720;6.576;2023-03-05T12:21:51;99724.63;;;8.42;51.40
17615;BME280;8926;49.720;6.576;2023-03-05T12:32:00;99698.47;;;8.62;49.40
17615;BME280;8926;49.720;6.576;2023-03-05T12:38:08;99679.00;;;8.87;49.72
17615;BME280;8926;49.720;6.576;2023-03-05T12:42:53;99679.69;;;8.90;49.22
17615;BME280;8926;49.720;6.576;2023-03-05T12:45:26;99668.28;;;8.93;49.19
17615;BME280;8926;49.720;6.576;2023-03-05T12:53:14;99655.63;;;8.85;47.41
17615;BME280;8926;49.720;6.576;2023-03-05T13:00:52;99646.41;;;8.79;49.44
17615;BME280;8926;49.720;6.576;2023-03-05T13:03:23;99653.91;;;8.68;49.43
17615;BME280;8926;49.720;6.576;2023-03-05T13:05:54;99646.47;;;8.61;49.95
17615;BME280;8926;49.720;6.576;2023-03-05T13:10:56;99641.94;;;8.30;48.96
17615;BME280;8926;49.720;6.576;2023-03-05T13:13:24;99647.88;;;8.32;49.32
17615;BME280;8926;49.720;6.576;2023-03-05T13:15:51;99639.47;;;8.27;49.46
17615;BME280;8926;49.720;6.576;2023-03-05T13:18:22;99634.41;;;8.24;49.12
17615;BME280;8926;49.720;6.576;2023-03-05T13:21:00;99633.34;;;8.28;49.17
17615;BME280;8926;49.720;6.576;2023-03-05T13:23:26;99629.84;;;8.29;49.14
17615;BME280;8926;49.720;6.576;2023-03-05T13:26:13;99624.78;;;8.26;49.13
17615;BME280;8926;49.720;6.576;2023-03-05T13:28:41;99621.25;;;8.27;48.87
17615;BME280;8926;49.720;6.576;2023-03-05T13:31:17;99624.63;;;8.29;48.65
17615;BME280;8926;49.720;6.576;2023-03-05T13:33:53;99619.41;;;8.29;49.49
17615;BME280;8926;49.720;6.576;2023-03-05T13:36:21;99612.81;;;8.22;48.71
17615;BME280;8926;49.720;6.576;2023-03-05T13:38:48;99613.75;;;8.21;49.29
17615;BME280;8926;49.720;6.576;2023-03-05T13:43:53;99600.13;;;8.33;49.16
17615;BME280;8926;49.720;6.576;2023-03-05T13:46:34;99602.38;;;8.40;49.77
17615;BME280;8926;49.720;6.576;2023-03-05T13:49:22;99600.53;;;8.42;49.63
17615;BME280;8926;49.720;6.576;2023-03-05T13:51:53;99591.66;;;8.46;49.51
17615;BME280;8926;49.720;6.576;2023-03-05T13:54:19;99584.84;;;8.44;48.50
17615;BME280;8926;49.720;6.576;2023-03-05T13:57:00;99584.06;;;8.42;48.31
17615;BME280;8926;49.720;6.576;2023-03-05T13:59:29;99575.13;;;8.47;48.59
17615;BME280;8926;49.720;6.576;2023-03-05T14:01:57;99567.31;;;8.47;48.24
17615;BME280;8926;49.720;6.576;2023-03-05T14:04:28;99569.22;;;8.44;48.91
17615;BME280;8926;49.720;6.576;2023-03-05T14:07:04;99564.94;;;8.43;49.12
17615;BME280;8926;49.720;6.576;2023-03-05T14:09:43;99561.94;;;8.33;49.09
17615;BME280;8926;49.720;6.576;2023-03-05T14:14:44;99563.84;;;8.30;48.20
17615;BME280;8926;49.720;6.576;2023-03-05T14:17:37;99557.13;;;8.26;48.78
17615;BME280;8926;49.720;6.576;2023-03-05T14:22:36;99551.28;;;8.21;48.85
17615;BME280;8926;49.720;6.576;2023-03-05T14:25:03;99540.50;;;8.28;49.83
17615;BME280;8926;49.720;6.576;2023-03-05T14:27:34;99542.59;;;8.04;48.67
17615;BME280;8926;49.720;6.576;2023-03-05T14:30:01;99538.53;;;7.99;49.60
17615;BME280;8926;49.720;6.576;2023-03-05T14:32:29;99532.63;;;7.95;49.54
17615;BME280;8926;49.720;6.576;2023-03-05T14:34:57;99532.63;;;7.95;49.22